sensor_id;sensor_type;location;lat;lon;timestamp;P1;durP1;ratioP1;P2;durP2;ratioP2
7485;SDS011;3784;54.098;9.998;2022-11-11T00:01:01;10.10;;;4.20;;
7485;SDS011;3784;54.098;9.998;2022-11-11T00:03:28;10.80;;;4.73;;
7485;SDS011;3784;54.098;9.998;2022-11-11T00:06:03;8.60;;;4.00;;
7485;SDS011;3784;54.098;9.998;2022-11-11T00:08:30;10.20;;;4.00;;
7485;SDS011;3784;54.098;9.998;2022-11-11T00:11:01;9.10;;;4.10;;
7485;SDS011;3784;54.098;9.998;2022-11-11T00:13:28;11.93;;;4.13;;
7485;SDS011;3784;54.098;9.998;2022-11-11T00:15:55;11.57;;;4.07;;
7485;SDS011;3784;54.098;9.998;2022-11-11T00:18:21;10.10;;;3.80;;
7485;SDS011;3784;54.098;9.998;2022-11-11T00:21:10;6.77;;;4.13;;
7485;SDS011;3784;54.098;9.998;2022-11-11T00:23:54;10.50;;;4.10;;
7485;SDS011;3784;54.098;9.998;2022-11-11T00:26:39;9.60;;;4.33;;
7485;SDS011;3784;54.098;9.998;2022-11-11T00:29:06;8.73;;;4.27;;
7485;SDS011;3784;54.098;9.998;2022-11-11T00:31:33;7.47;;;3.93;;
7485;SDS011;3784;54.098;9.998;2022-11-11T00:34:00;11.97;;;4.97;;
7485;SDS011;3784;54.098;9.998;2022-11-11T00:36:27;9.60;;;4.27;;
7485;SDS011;3784;54.098;9.998;2022-11-11T00:38:53;9.60;;;3.90;;
7485;SDS011;3784;54.098;9.998;2022-11-11T00:41:21;10.33;;;4.30;;
7485;SDS011;3784;54.098;9.998;2022-11-11T00:43:49;9.27;;;4.30;;
7485;SDS011;3784;54.098;9.998;2022-11-11T00:46:16;9.17;;;4.13;;
7485;SDS011;3784;54.098;9.998;2022-11-11T00:49:01;10.30;;;4.30;;
7485;SDS011;3784;54.098;9.998;2022-11-11T00:51:46;9.37;;;4.40;;
7485;SDS011;3784;54.098;9.998;2022-11-11T00:54:12;9.20;;;4.10;;
7485;SDS011;3784;54.098;9.998;2022-11-11T00:56:39;8.37;;;3.83;;
7485;SDS011;3784;54.098;9.998;2022-11-11T00:59:06;10.23;;;4.10;;
7485;SDS011;3784;54.098;9.998;2022-11-11T01:01:33;8.27;;;3.70;;
7485;SDS011;3784;54.098;9.998;2022-11-11T01:04:01;11.00;;;4.23;;
7485;SDS011;3784;54.098;9.998;2022-11-11T01:06:28;10.40;;;4.53;;
7485;SDS011;3784;54.098;9.998;2022-11-11T01:08:54;9.17;;;4.10;;
7485;SDS011;3784;54.098;9.998;2022-11-11T01:11:22;11.60;;;4.50;;
7485;SDS011;3784;54.098;9.998;2022-11-11T01:13:49;8.67;;;3.47;;
7485;SDS011;3784;54.098;9.998;2022-11-11T01:16:20;9.40;;;3.87;;
7485;SDS011;3784;54.098;9.998;2022-11-11T01:18:49;9.30;;;3.87;;
7485;SDS011;3784;54.098;9.998;2022-11-11T01:21:17;15.20;;;4.20;;
7485;SDS011;3784;54.098;9.998;2022-11-11T01:23:46;11.60;;;4.43;;
7485;SDS011;3784;54.098;9.998;2022-11-11T01:26:21;9.20;;;3.93;;
7485;SDS011;3784;54.098;9.998;2022-11-11T01:28:56;9.37;;;4.20;;
7485;SDS011;3784;54.098;9.998;2022-11-11T01:31:23;8.10;;;3.93;;
7485;SDS011;3784;54.098;9.998;2022-11-11T01:33:50;10.90;;;4.13;;
7485;SDS011;3784;54.098;9.998;2022-11-11T01:36:18;9.63;;;4.10;;
7485;SDS011;3784;54.098;9.998;2022-11-11T01:38:53;9.87;;;4.20;;
7485;SDS011;3784;54.098;9.998;2022-11-11T01:41:22;10.07;;;4.47;;
7485;SDS011;3784;54.098;9.998;2022-11-11T01:46:33;9.67;;;4.10;;
7485;SDS011;3784;54.098;9.998;2022-11-11T01:51:58;11.00;;;4.17;;
7485;SDS011;3784;54.098;9.998;2022-11-11T01:54:45;10.10;;;3.47;;
7485;SDS011;3784;54.098;9.998;2022-11-11T02:00:00;8.37;;;3.63;;
7485;SDS011;3784;54.098;9.998;2022-11-11T02:02:37;8.13;;;3.70;;
7485;SDS011;3784;54.098;9.998;2022-11-11T02:05:12;9.00;;;4.00;;
7485;SDS011;3784;54.098;9.998;2022-11-11T02:08:00;9.63;;;3.80;;
7485;SDS011;3784;54.098;9.998;2022-11-11T02:10:29;9.33;;;4.23;;
7485;SDS011;3784;54.098;9.998;2022-11-11T02:12:57;9.60;;;3.97;;
7485;SDS011;3784;54.098;9.998;2022-11-11T02:15:43;8.50;;;4.00;;
7485;SDS011;3784;54.098;9.998;2022-11-11T02:18:10;8.33;;;3.93;;
7485;SDS011;3784;54.098;9.998;2022-11-11T02:20:38;8.10;;;3.50;;
7485;SDS011;3784;54.098;9.998;2022-11-11T02:26:05;12.70;;;4.03;;
7485;SDS011;3784;54.098;9.998;2022-11-11T02:28:32;9.73;;;4.03;;
7485;SDS011;3784;54.098;9.998;2022-11-11T02:30:59;9.87;;;3.80;;
7485;SDS011;3784;54.098;9.998;2022-11-11T02:33:25;10.40;;;4.50;;
7485;SDS011;3784;54.098;9.998;2022-11-11T02:35:53;10.33;;;3.70;;
7485;SDS011;3784;54.098;9.998;2022-11-11T02:38:22;10.67;;;3.97;;
7485;SDS011;3784;54.098;9.998;2022-11-11T02:40:50;8.23;;;4.13;;
7485;SDS011;3784;54.098;9.998;2022-11-11T02:43:35;10.50;;;4.10;;
7485;SDS011;3784;54.098;9.998;2022-11-11T02:46:03;12.30;;;4.20;;
7485;SDS011;3784;54.098;9.998;2022-11-11T02:48:30;10.47;;;4.03;;
7485;SDS011;3784;54.098;9.998;2022-11-11T02:50:57;10.07;;;4.53;;
7485;SDS011;3784;54.098;9.998;2022-11-11T02:53:24;9.43;;;3.90;;
7485;SDS011;3784;54.098;9.998;2022-11-11T02:55:51;11.10;;;4.20;;
7485;SDS011;3784;54.098;9.998;2022-11-11T02:58:17;10.90;;;4.07;;
7485;SDS011;3784;54.098;9.998;2022-11-11T03:00:44;10.10;;;4.60;;
7485;SDS011;3784;54.098;9.998;2022-11-11T03:03:10;9.17;;;4.57;;
7485;SDS011;3784;54.098;9.998;2022-11-11T03:05:37;10.27;;;5.10;;
7485;SDS011;3784;54.098;9.998;2022-11-11T03:08:04;9.90;;;4.43;;
7485;SDS011;3784;54.098;9.998;2022-11-11T03:10:31;12.53;;;5.27;;
7485;SDS011;3784;54.098;9.998;2022-11-11T03:12:57;10.23;;;4.77;;
7485;SDS011;3784;54.098;9.998;2022-11-11T03:15:24;12.33;;;5.10;;
7485;SDS011;3784;54.098;9.998;2022-11-11T03:17:50;9.43;;;4.70;;
7485;SDS011;3784;54.098;9.998;2022-11-11T03:20:17;9.57;;;4.63;;
7485;SDS011;3784;54.098;9.998;2022-11-11T03:23:07;11.27;;;4.83;;
7485;SDS011;3784;54.098;9.998;2022-11-11T03:25:39;10.30;;;5.07;;
7485;SDS011;3784;54.098;9.998;2022-11-11T03:30:41;12.30;;;4.70;;
7485;SDS011;3784;54.098;9.998;2022-11-11T03:33:08;11.97;;;5.57;;
7485;SDS011;3784;54.098;9.998;2022-11-11T03:35:35;9.03;;;4.70;;
7485;SDS011;3784;54.098;9.998;2022-11-11T03:38:03;14.80;;;5.63;;
7485;SDS011;3784;54.098;9.998;2022-11-11T03:40:53;12.97;;;5.63;;
7485;SDS011;3784;54.098;9.998;2022-11-11T03:43:25;12.63;;;5.97;;
7485;SDS011;3784;54.098;9.998;2022-11-11T03:45:54;13.63;;;5.43;;
7485;SDS011;3784;54.098;9.998;2022-11-11T03:48:21;15.27;;;5.67;;
7485;SDS011;3784;54.098;9.998;2022-11-11T03:50:48;12.27;;;5.77;;
7485;SDS011;3784;54.098;9.998;2022-11-11T03:53:15;15.50;;;6.60;;
7485;SDS011;3784;54.098;9.998;2022-11-11T03:55:43;15.73;;;5.87;;
7485;SDS011;3784;54.098;9.998;2022-11-11T03:58:09;8.43;;;4.97;;
7485;SDS011;3784;54.098;9.998;2022-11-11T04:00:36;12.70;;;5.57;;
7485;SDS011;3784;54.098;9.998;2022-11-11T04:03:03;11.70;;;5.73;;
7485;SDS011;3784;54.098;9.998;2022-11-11T04:05:55;12.00;;;5.73;;
7485;SDS011;3784;54.098;9.998;2022-11-11T04:08:41;12.13;;;5.60;;
7485;SDS011;3784;54.098;9.998;2022-11-11T04:11:26;10.83;;;5.13;;
7485;SDS011;3784;54.098;9.998;2022-11-11T04:13:55;12.27;;;5.93;;
7485;SDS011;3784;54.098;9.998;2022-11-11T04:16:43;12.30;;;5.23;;
7485;SDS011;3784;54.098;9.998;2022-11-11T04:19:09;10.37;;;6.07;;
7485;SDS011;3784;54.098;9.998;2022-11-11T04:21:54;13.87;;;5.73;;
7485;SDS011;3784;54.098;9.998;2022-11-11T04:24:21;14.53;;;5.97;;
7485;SDS011;3784;54.098;9.998;2022-11-11T04:27:07;13.33;;;5.67;;
7485;SDS011;3784;54.098;9.998;2022-11-11T04:29:38;16.97;;;6.37;;
7485;SDS011;3784;54.098;9.998;2022-11-11T04:32:08;11.87;;;5.37;;
7485;SDS011;3784;54.098;9.998;2022-11-11T04:34:59;12.47;;;5.83;;
7485;SDS011;3784;54.098;9.998;2022-11-11T04:37:29;12.90;;;5.70;;
7485;SDS011;3784;54.098;9.998;2022-11-11T04:39:57;14.93;;;6.83;;
7485;SDS011;3784;54.098;9.998;2022-11-11T04:42:41;12.17;;;5.70;;
7485;SDS011;3784;54.098;9.998;2022-11-11T04:45:11;14.50;;;6.10;;
7485;SDS011;3784;54.098;9.998;2022-11-11T04:47:57;12.00;;;6.00;;
7485;SDS011;3784;54.098;9.998;2022-11-11T04:50:29;12.53;;;6.43;;
7485;SDS011;3784;54.098;9.998;2022-11-11T04:52:57;12.93;;;6.50;;
7485;SDS011;3784;54.098;9.998;2022-11-11T04:55:23;14.87;;;6.47;;
7485;SDS011;3784;54.098;9.998;2022-11-11T04:58:09;15.90;;;6.80;;
7485;SDS011;3784;54.098;9.998;2022-11-11T05:00:35;11.50;;;6.00;;
7485;SDS011;3784;54.098;9.998;2022-11-11T05:03:02;10.43;;;6.10;;
7485;SDS011;3784;54.098;9.998;2022-11-11T05:05:45;10.87;;;6.13;;
7485;SDS011;3784;54.098;9.998;2022-11-11T05:08:41;13.73;;;6.60;;
7485;SDS011;3784;54.098;9.998;2022-11-11T05:13:56;13.30;;;6.53;;
7485;SDS011;3784;54.098;9.998;2022-11-11T05:16:44;10.93;;;6.13;;
7485;SDS011;3784;54.098;9.998;2022-11-11T05:19:30;14.50;;;7.07;;
7485;SDS011;3784;54.098;9.998;2022-11-11T05:25:09;13.37;;;6.77;;
7485;SDS011;3784;54.098;9.998;2022-11-11T05:27:52;11.70;;;6.03;;
7485;SDS011;3784;54.098;9.998;2022-11-11T05:30:19;13.37;;;6.50;;
7485;SDS011;3784;54.098;9.998;2022-11-11T05:32:46;13.00;;;6.40;;
7485;SDS011;3784;54.098;9.998;2022-11-11T05:35:13;9.70;;;6.50;;
7485;SDS011;3784;54.098;9.998;2022-11-11T05:37:40;14.10;;;6.87;;
7485;SDS011;3784;54.098;9.998;2022-11-11T05:40:07;13.17;;;7.10;;
7485;SDS011;3784;54.098;9.998;2022-11-11T05:42:35;10.63;;;7.23;;
7485;SDS011;3784;54.098;9.998;2022-11-11T05:45:08;11.73;;;6.90;;
7485;SDS011;3784;54.098;9.998;2022-11-11T05:47:35;12.43;;;6.93;;
7485;SDS011;3784;54.098;9.998;2022-11-11T05:50:01;15.23;;;7.40;;
7485;SDS011;3784;54.098;9.998;2022-11-11T05:52:27;15.03;;;7.43;;
7485;SDS011;3784;54.098;9.998;2022-11-11T05:54:54;15.07;;;8.13;;
7485;SDS011;3784;54.098;9.998;2022-11-11T05:57:20;12.53;;;8.17;;
7485;SDS011;3784;54.098;9.998;2022-11-11T05:59:47;16.53;;;8.37;;
7485;SDS011;3784;54.098;9.998;2022-11-11T06:02:13;15.23;;;8.10;;
7485;SDS011;3784;54.098;9.998;2022-11-11T06:04:40;14.17;;;7.73;;
7485;SDS011;3784;54.098;9.998;2022-11-11T06:07:06;12.97;;;7.57;;
7485;SDS011;3784;54.098;9.998;2022-11-11T06:09:33;11.67;;;7.33;;
7485;SDS011;3784;54.098;9.998;2022-11-11T06:11:59;13.53;;;8.67;;
7485;SDS011;3784;54.098;9.998;2022-11-11T06:14:26;11.70;;;7.67;;
7485;SDS011;3784;54.098;9.998;2022-11-11T06:16:53;15.57;;;8.33;;
7485;SDS011;3784;54.098;9.998;2022-11-11T06:19:19;14.80;;;7.93;;
7485;SDS011;3784;54.098;9.998;2022-11-11T06:21:46;15.97;;;7.77;;
7485;SDS011;3784;54.098;9.998;2022-11-11T06:24:26;15.00;;;8.70;;
7485;SDS011;3784;54.098;9.998;2022-11-11T06:26:53;13.13;;;8.10;;
7485;SDS011;3784;54.098;9.998;2022-11-11T06:29:21;13.83;;;8.47;;
7485;SDS011;3784;54.098;9.998;2022-11-11T06:31:47;15.23;;;8.50;;
7485;SDS011;3784;54.098;9.998;2022-11-11T06:34:14;14.93;;;8.10;;
7485;SDS011;3784;54.098;9.998;2022-11-11T06:36:41;14.33;;;8.67;;
7485;SDS011;3784;54.098;9.998;2022-11-11T06:39:07;14.33;;;8.77;;
7485;SDS011;3784;54.098;9.998;2022-11-11T06:41:33;13.33;;;8.77;;
7485;SDS011;3784;54.098;9.998;2022-11-11T06:44:00;17.17;;;9.63;;
7485;SDS011;3784;54.098;9.998;2022-11-11T06:46:26;14.07;;;9.03;;
7485;SDS011;3784;54.098;9.998;2022-11-11T06:48:53;15.20;;;9.67;;
7485;SDS011;3784;54.098;9.998;2022-11-11T06:51:19;12.33;;;8.63;;
7485;SDS011;3784;54.098;9.998;2022-11-11T06:53:46;14.83;;;9.50;;
7485;SDS011;3784;54.098;9.998;2022-11-11T06:56:12;15.37;;;9.03;;
7485;SDS011;3784;54.098;9.998;2022-11-11T06:58:39;18.47;;;10.03;;
7485;SDS011;3784;54.098;9.998;2022-11-11T07:01:06;11.23;;;8.73;;
7485;SDS011;3784;54.098;9.998;2022-11-11T07:03:34;16.63;;;9.67;;
7485;SDS011;3784;54.098;9.998;2022-11-11T07:06:01;11.97;;;9.70;;
7485;SDS011;3784;54.098;9.998;2022-11-11T07:08:29;14.87;;;9.20;;
7485;SDS011;3784;54.098;9.998;2022-11-11T07:10:55;15.10;;;10.00;;
7485;SDS011;3784;54.098;9.998;2022-11-11T07:13:22;20.43;;;10.27;;
7485;SDS011;3784;54.098;9.998;2022-11-11T07:15:49;13.87;;;9.57;;
7485;SDS011;3784;54.098;9.998;2022-11-11T07:18:15;17.60;;;10.40;;
7485;SDS011;3784;54.098;9.998;2022-11-11T07:20:42;20.90;;;10.50;;
7485;SDS011;3784;54.098;9.998;2022-11-11T07:23:08;18.83;;;10.20;;
7485;SDS011;3784;54.098;9.998;2022-11-11T07:25:35;19.80;;;10.90;;
7485;SDS011;3784;54.098;9.998;2022-11-11T07:28:01;15.07;;;11.13;;
7485;SDS011;3784;54.098;9.998;2022-11-11T07:30:28;19.20;;;10.83;;
7485;SDS011;3784;54.098;9.998;2022-11-11T07:32:54;18.07;;;10.50;;
7485;SDS011;3784;54.098;9.998;2022-11-11T07:35:21;19.77;;;11.93;;
7485;SDS011;3784;54.098;9.998;2022-11-11T07:37:48;17.07;;;11.57;;
7485;SDS011;3784;54.098;9.998;2022-11-11T07:40:15;14.57;;;11.47;;
7485;SDS011;3784;54.098;9.998;2022-11-11T07:42:43;25.07;;;12.40;;
7485;SDS011;3784;54.098;9.998;2022-11-11T07:45:10;13.73;;;11.33;;
7485;SDS011;3784;54.098;9.998;2022-11-11T07:47:37;22.47;;;11.27;;
7485;SDS011;3784;54.098;9.998;2022-11-11T07:50:04;17.13;;;12.00;;
7485;SDS011;3784;54.098;9.998;2022-11-11T07:52:33;17.10;;;11.50;;
7485;SDS011;3784;54.098;9.998;2022-11-11T07:55:02;15.30;;;11.60;;
7485;SDS011;3784;54.098;9.998;2022-11-11T07:57:30;16.67;;;12.77;;
7485;SDS011;3784;54.098;9.998;2022-11-11T07:59:56;18.10;;;12.57;;
7485;SDS011;3784;54.098;9.998;2022-11-11T08:02:23;15.20;;;11.40;;
7485;SDS011;3784;54.098;9.998;2022-11-11T08:04:49;19.40;;;12.43;;
7485;SDS011;3784;54.098;9.998;2022-11-11T08:07:21;16.37;;;12.27;;
7485;SDS011;3784;54.098;9.998;2022-11-11T08:09:49;18.20;;;13.10;;
7485;SDS011;3784;54.098;9.998;2022-11-11T08:12:16;20.60;;;13.30;;
7485;SDS011;3784;54.098;9.998;2022-11-11T08:15:02;18.97;;;12.20;;
7485;SDS011;3784;54.098;9.998;2022-11-11T08:17:36;20.77;;;12.50;;
7485;SDS011;3784;54.098;9.998;2022-11-11T08:20:05;20.57;;;13.60;;
7485;SDS011;3784;54.098;9.998;2022-11-11T08:22:39;17.23;;;12.97;;
7485;SDS011;3784;54.098;9.998;2022-11-11T08:25:09;19.17;;;13.53;;
7485;SDS011;3784;54.098;9.998;2022-11-11T08:30:13;20.67;;;12.90;;
7485;SDS011;3784;54.098;9.998;2022-11-11T08:32:40;21.33;;;13.50;;
7485;SDS011;3784;54.098;9.998;2022-11-11T08:35:06;25.87;;;15.40;;
7485;SDS011;3784;54.098;9.998;2022-11-11T08:37:33;19.77;;;13.67;;
7485;SDS011;3784;54.098;9.998;2022-11-11T08:40:00;23.30;;;13.93;;
7485;SDS011;3784;54.098;9.998;2022-11-11T08:42:26;22.03;;;13.80;;
7485;SDS011;3784;54.098;9.998;2022-11-11T08:44:53;24.93;;;13.80;;
7485;SDS011;3784;54.098;9.998;2022-11-11T08:47:19;19.63;;;13.17;;
7485;SDS011;3784;54.098;9.998;2022-11-11T08:49:47;23.37;;;14.90;;
7485;SDS011;3784;54.098;9.998;2022-11-11T08:52:16;24.33;;;13.97;;
7485;SDS011;3784;54.098;9.998;2022-11-11T08:54:42;18.97;;;13.87;;
7485;SDS011;3784;54.098;9.998;2022-11-11T08:57:09;18.17;;;13.37;;
7485;SDS011;3784;54.098;9.998;2022-11-11T08:59:35;21.20;;;13.23;;
7485;SDS011;3784;54.098;9.998;2022-11-11T09:02:02;18.17;;;13.17;;
7485;SDS011;3784;54.098;9.998;2022-11-11T09:04:28;18.43;;;13.93;;
7485;SDS011;3784;54.098;9.998;2022-11-11T09:07:10;26.00;;;14.13;;
7485;SDS011;3784;54.098;9.998;2022-11-11T09:09:36;19.37;;;14.30;;
7485;SDS011;3784;54.098;9.998;2022-11-11T09:12:03;24.87;;;15.47;;
7485;SDS011;3784;54.098;9.998;2022-11-11T09:14:29;25.23;;;14.83;;
7485;SDS011;3784;54.098;9.998;2022-11-11T09:16:56;18.47;;;13.80;;
7485;SDS011;3784;54.098;9.998;2022-11-11T09:19:24;20.60;;;13.87;;
7485;SDS011;3784;54.098;9.998;2022-11-11T09:21:50;20.37;;;14.20;;
7485;SDS011;3784;54.098;9.998;2022-11-11T09:24:18;18.80;;;14.33;;
7485;SDS011;3784;54.098;9.998;2022-11-11T09:26:48;23.20;;;14.50;;
7485;SDS011;3784;54.098;9.998;2022-11-11T09:29:15;22.33;;;14.40;;
7485;SDS011;3784;54.098;9.998;2022-11-11T09:31:42;22.03;;;14.00;;
7485;SDS011;3784;54.098;9.998;2022-11-11T09:34:11;16.67;;;13.53;;
7485;SDS011;3784;54.098;9.998;2022-11-11T09:36:41;20.10;;;14.23;;
7485;SDS011;3784;54.098;9.998;2022-11-11T09:39:08;21.47;;;14.10;;
7485;SDS011;3784;54.098;9.998;2022-11-11T09:42:21;22.47;;;14.27;;
7485;SDS011;3784;54.098;9.998;2022-11-11T09:47:48;24.60;;;15.30;;
7485;SDS011;3784;54.098;9.998;2022-11-11T09:50:38;21.27;;;14.37;;
7485;SDS011;3784;54.098;9.998;2022-11-11T09:53:17;23.77;;;14.57;;
7485;SDS011;3784;54.098;9.998;2022-11-11T09:55:47;20.03;;;14.17;;
7485;SDS011;3784;54.098;9.998;2022-11-11T10:01:23;22.97;;;15.37;;
7485;SDS011;3784;54.098;9.998;2022-11-11T10:03:47;20.70;;;14.90;;
7485;SDS011;3784;54.098;9.998;2022-11-11T10:06:39;26.40;;;16.10;;
7485;SDS011;3784;54.098;9.998;2022-11-11T10:09:06;24.40;;;16.07;;
7485;SDS011;3784;54.098;9.998;2022-11-11T10:11:52;22.23;;;15.50;;
7485;SDS011;3784;54.098;9.998;2022-11-11T10:14:48;23.03;;;15.30;;
7485;SDS011;3784;54.098;9.998;2022-11-11T10:22:32;24.90;;;16.57;;
7485;SDS011;3784;54.098;9.998;2022-11-11T10:27:42;24.27;;;15.17;;
7485;SDS011;3784;54.098;9.998;2022-11-11T10:30:21;25.13;;;15.47;;
7485;SDS011;3784;54.098;9.998;2022-11-11T10:32:58;22.23;;;15.80;;
7485;SDS011;3784;54.098;9.998;2022-11-11T10:35:27;28.03;;;15.93;;
7485;SDS011;3784;54.098;9.998;2022-11-11T10:38:00;22.30;;;15.37;;
7485;SDS011;3784;54.098;9.998;2022-11-11T10:40:40;28.43;;;16.00;;
7485;SDS011;3784;54.098;9.998;2022-11-11T10:43:26;25.43;;;14.97;;
7485;SDS011;3784;54.098;9.998;2022-11-11T10:51:09;28.23;;;15.77;;
7485;SDS011;3784;54.098;9.998;2022-11-11T10:53:38;29.47;;;20.63;;
7485;SDS011;3784;54.098;9.998;2022-11-11T10:56:17;28.17;;;16.73;;
7485;SDS011;3784;54.098;9.998;2022-11-11T11:02:18;22.20;;;16.57;;
7485;SDS011;3784;54.098;9.998;2022-11-11T11:04:45;23.40;;;15.07;;
7485;SDS011;3784;54.098;9.998;2022-11-11T11:07:14;28.23;;;17.20;;
7485;SDS011;3784;54.098;9.998;2022-11-11T11:09:49;22.20;;;17.57;;
7485;SDS011;3784;54.098;9.998;2022-11-11T11:14:53;25.47;;;16.80;;
7485;SDS011;3784;54.098;9.998;2022-11-11T11:17:38;20.13;;;15.43;;
7485;SDS011;3784;54.098;9.998;2022-11-11T11:20:12;25.33;;;15.47;;
7485;SDS011;3784;54.098;9.998;2022-11-11T11:22:45;19.33;;;15.50;;
7485;SDS011;3784;54.098;9.998;2022-11-11T11:25:12;25.90;;;16.23;;
7485;SDS011;3784;54.098;9.998;2022-11-11T11:27:39;23.03;;;17.87;;
7485;SDS011;3784;54.098;9.998;2022-11-11T11:30:10;19.87;;;15.57;;
7485;SDS011;3784;54.098;9.998;2022-11-11T11:32:54;24.70;;;15.53;;
7485;SDS011;3784;54.098;9.998;2022-11-11T11:38:08;20.23;;;15.77;;
7485;SDS011;3784;54.098;9.998;2022-11-11T11:43:26;20.70;;;16.03;;
7485;SDS011;3784;54.098;9.998;2022-11-11T11:45:59;21.43;;;15.13;;
7485;SDS011;3784;54.098;9.998;2022-11-11T11:48:40;20.20;;;14.87;;
7485;SDS011;3784;54.098;9.998;2022-11-11T11:51:18;17.80;;;13.57;;
7485;SDS011;3784;54.098;9.998;2022-11-11T11:56:55;17.07;;;13.40;;
7485;SDS011;3784;54.098;9.998;2022-11-11T12:04:57;14.87;;;12.13;;
7485;SDS011;3784;54.098;9.998;2022-11-11T12:08:05;21.07;;;12.60;;
7485;SDS011;3784;54.098;9.998;2022-11-11T12:10:48;17.57;;;12.97;;
7485;SDS011;3784;54.098;9.998;2022-11-11T12:13:40;14.37;;;12.00;;
7485;SDS011;3784;54.098;9.998;2022-11-11T12:30:43;14.17;;;10.57;;
7485;SDS011;3784;54.098;9.998;2022-11-11T12:38:52;12.27;;;10.10;;
7485;SDS011;3784;54.098;9.998;2022-11-11T12:44:13;11.53;;;9.40;;
7485;SDS011;3784;54.098;9.998;2022-11-11T12:46:47;15.07;;;10.10;;
7485;SDS011;3784;54.098;9.998;2022-11-11T13:00:38;12.43;;;9.87;;
7485;SDS011;3784;54.098;9.998;2022-11-11T13:03:14;15.47;;;9.37;;
7485;SDS011;3784;54.098;9.998;2022-11-11T13:13:47;12.73;;;9.40;;
7485;SDS011;3784;54.098;9.998;2022-11-11T13:16:21;13.70;;;9.73;;
7485;SDS011;3784;54.098;9.998;2022-11-11T13:21:23;13.30;;;10.00;;
7485;SDS011;3784;54.098;9.998;2022-11-11T13:23:54;12.57;;;9.97;;
7485;SDS011;3784;54.098;9.998;2022-11-11T13:26:26;12.70;;;10.07;;
7485;SDS011;3784;54.098;9.998;2022-11-11T13:29:00;13.17;;;10.00;;
7485;SDS011;3784;54.098;9.998;2022-11-11T13:31:39;12.33;;;10.50;;
7485;SDS011;3784;54.098;9.998;2022-11-11T13:34:10;11.67;;;9.60;;
7485;SDS011;3784;54.098;9.998;2022-11-11T13:36:43;14.50;;;9.87;;
7485;SDS011;3784;54.098;9.998;2022-11-11T13:39:22;12.13;;;9.83;;
7485;SDS011;3784;54.098;9.998;2022-11-11T13:42:26;12.03;;;9.43;;
7485;SDS011;3784;54.098;9.998;2022-11-11T13:44:54;13.30;;;10.00;;
7485;SDS011;3784;54.098;9.998;2022-11-11T13:47:29;12.53;;;10.93;;
7485;SDS011;3784;54.098;9.998;2022-11-11T13:50:01;19.57;;;13.97;;
7485;SDS011;3784;54.098;9.998;2022-11-11T13:52:31;16.10;;;11.73;;
7485;SDS011;3784;54.098;9.998;2022-11-11T13:55:00;14.90;;;10.57;;
7485;SDS011;3784;54.098;9.998;2022-11-11T13:57:29;14.00;;;10.27;;
7485;SDS011;3784;54.098;9.998;2022-11-11T14:00:02;12.00;;;10.00;;
7485;SDS011;3784;54.098;9.998;2022-11-11T14:02:31;11.37;;;9.03;;
7485;SDS011;3784;54.098;9.998;2022-11-11T14:10:55;15.67;;;10.57;;
7485;SDS011;3784;54.098;9.998;2022-11-11T14:12:56;12.30;;;10.07;;
7485;SDS011;3784;54.098;9.998;2022-11-11T14:20:44;16.40;;;10.23;;
7485;SDS011;3784;54.098;9.998;2022-11-11T14:25:50;14.77;;;10.20;;
7485;SDS011;3784;54.098;9.998;2022-11-11T14:28:43;13.90;;;9.63;;
7485;SDS011;3784;54.098;9.998;2022-11-11T14:38:53;12.37;;;10.63;;
7485;SDS011;3784;54.098;9.998;2022-11-11T14:41:45;11.37;;;9.70;;
7485;SDS011;3784;54.098;9.998;2022-11-11T14:52:52;14.10;;;10.27;;
7485;SDS011;3784;54.098;9.998;2022-11-11T15:00:21;12.67;;;10.47;;
7485;SDS011;3784;54.098;9.998;2022-11-11T15:08:36;14.73;;;10.50;;
7485;SDS011;3784;54.098;9.998;2022-11-11T15:11:13;14.67;;;10.47;;
7485;SDS011;3784;54.098;9.998;2022-11-11T15:24:48;16.77;;;11.73;;
7485;SDS011;3784;54.098;9.998;2022-11-11T15:30:59;14.00;;;10.97;;
7485;SDS011;3784;54.098;9.998;2022-11-11T15:36:09;12.80;;;10.87;;
7485;SDS011;3784;54.098;9.998;2022-11-11T15:38:41;14.17;;;10.83;;
7485;SDS011;3784;54.098;9.998;2022-11-11T15:41:27;14.53;;;11.57;;
7485;SDS011;3784;54.098;9.998;2022-11-11T15:44:00;14.50;;;12.63;;
7485;SDS011;3784;54.098;9.998;2022-11-11T15:46:27;13.23;;;11.80;;
7485;SDS011;3784;54.098;9.998;2022-11-11T15:48:55;14.77;;;12.00;;
7485;SDS011;3784;54.098;9.998;2022-11-11T15:51:28;16.73;;;12.43;;
7485;SDS011;3784;54.098;9.998;2022-11-11T15:54:07;15.63;;;12.97;;
7485;SDS011;3784;54.098;9.998;2022-11-11T15:56:40;14.07;;;12.57;;
7485;SDS011;3784;54.098;9.998;2022-11-11T15:59:16;14.93;;;13.33;;
7485;SDS011;3784;54.098;9.998;2022-11-11T16:01:43;22.43;;;14.00;;
7485;SDS011;3784;54.098;9.998;2022-11-11T16:04:13;15.57;;;13.03;;
7485;SDS011;3784;54.098;9.998;2022-11-11T16:07:02;18.13;;;15.87;;
7485;SDS011;3784;54.098;9.998;2022-11-11T16:09:29;16.97;;;14.00;;
7485;SDS011;3784;54.098;9.998;2022-11-11T16:11:57;16.60;;;13.93;;
7485;SDS011;3784;54.098;9.998;2022-11-11T16:14:45;17.83;;;14.70;;
7485;SDS011;3784;54.098;9.998;2022-11-11T16:17:11;16.90;;;14.53;;
7485;SDS011;3784;54.098;9.998;2022-11-11T16:19:38;14.33;;;12.87;;
7485;SDS011;3784;54.098;9.998;2022-11-11T16:24:43;17.77;;;15.00;;
7485;SDS011;3784;54.098;9.998;2022-11-11T16:27:15;18.53;;;15.73;;
7485;SDS011;3784;54.098;9.998;2022-11-11T16:29:46;18.37;;;14.60;;
7485;SDS011;3784;54.098;9.998;2022-11-11T16:34:48;23.70;;;18.93;;
7485;SDS011;3784;54.098;9.998;2022-11-11T16:37:16;33.33;;;24.20;;
7485;SDS011;3784;54.098;9.998;2022-11-11T16:39:44;17.33;;;14.97;;
7485;SDS011;3784;54.098;9.998;2022-11-11T16:42:26;19.20;;;15.20;;
7485;SDS011;3784;54.098;9.998;2022-11-11T16:45:02;17.67;;;13.83;;
7485;SDS011;3784;54.098;9.998;2022-11-11T16:50:07;14.70;;;12.87;;
7485;SDS011;3784;54.098;9.998;2022-11-11T16:55:44;16.17;;;13.33;;
7485;SDS011;3784;54.098;9.998;2022-11-11T17:00:42;14.87;;;12.77;;
7485;SDS011;3784;54.098;9.998;2022-11-11T17:03:21;14.77;;;12.70;;
7485;SDS011;3784;54.098;9.998;2022-11-11T17:11:03;15.87;;;12.03;;
7485;SDS011;3784;54.098;9.998;2022-11-11T17:13:31;14.33;;;11.40;;
7485;SDS011;3784;54.098;9.998;2022-11-11T17:16:03;12.70;;;11.40;;
7485;SDS011;3784;54.098;9.998;2022-11-11T17:18:33;12.83;;;10.87;;
7485;SDS011;3784;54.098;9.998;2022-11-11T17:21:00;13.63;;;11.40;;
7485;SDS011;3784;54.098;9.998;2022-11-11T17:23:27;13.20;;;10.50;;
7485;SDS011;3784;54.098;9.998;2022-11-11T17:25:54;12.83;;;10.83;;
7485;SDS011;3784;54.098;9.998;2022-11-11T17:28:21;14.00;;;10.83;;
7485;SDS011;3784;54.098;9.998;2022-11-11T17:30:49;13.27;;;10.23;;
7485;SDS011;3784;54.098;9.998;2022-11-11T17:33:15;11.27;;;10.00;;
7485;SDS011;3784;54.098;9.998;2022-11-11T17:35:51;13.03;;;10.33;;
7485;SDS011;3784;54.098;9.998;2022-11-11T17:38:19;11.30;;;10.10;;
7485;SDS011;3784;54.098;9.998;2022-11-11T17:40:46;12.70;;;10.00;;
7485;SDS011;3784;54.098;9.998;2022-11-11T17:43:13;12.23;;;10.43;;
7485;SDS011;3784;54.098;9.998;2022-11-11T17:45:40;13.00;;;10.23;;
7485;SDS011;3784;54.098;9.998;2022-11-11T17:48:08;12.37;;;9.43;;
7485;SDS011;3784;54.098;9.998;2022-11-11T17:50:35;11.77;;;9.80;;
7485;SDS011;3784;54.098;9.998;2022-11-11T17:53:03;12.83;;;9.83;;
7485;SDS011;3784;54.098;9.998;2022-11-11T17:55:31;13.23;;;10.03;;
7485;SDS011;3784;54.098;9.998;2022-11-11T17:57:58;12.43;;;9.83;;
7485;SDS011;3784;54.098;9.998;2022-11-11T18:00:25;9.90;;;8.83;;
7485;SDS011;3784;54.098;9.998;2022-11-11T18:02:52;11.43;;;8.77;;
7485;SDS011;3784;54.098;9.998;2022-11-11T18:05:19;12.77;;;9.37;;
7485;SDS011;3784;54.098;9.998;2022-11-11T18:07:46;11.60;;;8.80;;
7485;SDS011;3784;54.098;9.998;2022-11-11T18:10:12;10.73;;;8.87;;
7485;SDS011;3784;54.098;9.998;2022-11-11T18:12:39;10.13;;;9.00;;
7485;SDS011;3784;54.098;9.998;2022-11-11T18:15:07;9.97;;;8.87;;
7485;SDS011;3784;54.098;9.998;2022-11-11T18:17:33;12.00;;;9.27;;
7485;SDS011;3784;54.098;9.998;2022-11-11T18:20:00;10.67;;;9.20;;
7485;SDS011;3784;54.098;9.998;2022-11-11T18:22:26;11.67;;;9.07;;